Time;durP1;ratioP1;P1;durP2;ratioP2;P2;SDS_P1;SDS_P2;PMS_P1;PMS_P2;Temp;Humidity;BMP_temperature;BMP_pressure;BME280_temperature;BME280_humidity;BME280_pressure;Samples;Min_cycle;Max_cycle;Signal;HPM_P1;HPM_P2
2022/06/08 00:00:46;;;;;;;;;;;;;;;;;;5032829;28;20356;-67
2022/06/08 00:03:14;;;;;;;;;;;;;;;;;;5032978;28;19921;-65
2022/06/08 00:05:41;;;;;;;;;;;;;;;;;;5033270;28;19920;-64
2022/06/08 00:08:08;;;;;;;;;;;;;;;;;;5025597;28;20519;-65
2022/06/08 00:10:35;;;;;;;;;;;;;;;;;;5032901;28;19928;-65
2022/06/08 00:13:03;;;;;;;;;;;;;;;;;;5033358;28;19928;-65
2022/06/08 00:15:30;;;;;;;;;;;;;;;;;;5033048;28;19983;-63
2022/06/08 00:17:56;;;;;;;;;;;;;;;;;;5032918;28;20459;-62
2022/06/08 00:20:23;;;;;;;;;;;;;;;;;;5032833;28;20015;-63
2022/06/08 00:22:50;;;;;;;;;;;;;;;;;;5032212;28;19921;-63
2022/06/08 00:25:17;;;;;;;;;;;;;;;;;;5032874;28;19932;-62
2022/06/08 00:27:43;;;;;;;;;;;;;;;;;;5026059;28;19925;-62
2022/06/08 00:30:11;;;;;;;;;;;;;;;;;;5013262;28;20350;-62
2022/06/08 00:32:38;;;;;;;;;;;;;;;;;;5013011;28;19922;-62
2022/06/08 00:35:06;;;;;;;;;;;;;;;;;;5013077;28;19925;-62
2022/06/08 00:37:32;;;;;;;;;;;;;;;;;;5012891;28;19921;-62
2022/06/08 00:39:59;;;;;;;;;;;;;;;;;;5012858;28;19921;-63
2022/06/08 00:42:26;;;;;;;;;;;;;;;;;;5012793;28;19921;-62
2022/06/08 00:44:55;;;;;;;;;;;;;;;;;;5013025;28;19928;-63
2022/06/08 00:47:25;;;;;;;;;;;;;;;;;;5012922;28;19921;-63
2022/06/08 00:49:54;;;;;;;;;;;;;;;;;;5013043;28;19921;-62
2022/06/08 00:52:21;;;;;;;;;;;;;;;;;;5012794;28;19922;-62
2022/06/08 00:54:50;;;;;;;;;;;;;;;;;;5012855;28;19999;-62
2022/06/08 00:57:20;;;;;;;;;;;;;;;;;;5012724;28;19925;-63
2022/06/08 00:59:48;;;;;;;;;;;;;;;;;;5027812;28;19982;-63
2022/06/08 01:02:15;;;;;;;;;;;;;;;;;;5032738;28;19979;-62
2022/06/08 01:04:43;;;;;;;;;;;;;;;;;;5032426;28;20374;-62
2022/06/08 01:07:15;;;;;;;;;;;;;;;;;;5032451;28;19921;-62
2022/06/08 01:09:42;;;;;;;;;;;;;;;;;;5032150;28;19948;-62
2022/06/08 01:12:11;;;;;;;;;;;;;;;;;;5031784;28;19925;-62
2022/06/08 01:14:38;;;;;;;;;;;;;;;;;;5032313;28;20298;-61
2022/06/08 01:17:07;;;;;;;;;;;;;;;;;;5031726;28;19959;-62
2022/06/08 01:19:34;;;;;;;;;;;;;;;;;;5012790;28;20283;-62
2022/06/08 01:22:04;;;;;;;;;;;;;;;;;;5031952;28;19921;-62
2022/06/08 01:24:31;;;;;;;;;;;;;;;;;;5031778;28;21356;-62
2022/06/08 01:27:04;;;;;;;;;;;;;;;;;;5032166;28;19925;-62
2022/06/08 01:29:33;;;;;;;;;;;;;;;;;;5031993;28;19921;-62
2022/06/08 01:32:03;;;;;;;;;;;;;;;;;;5031616;28;19925;-62
2022/06/08 01:34:34;;;;;;;;;;;;;;;;;;5035544;28;19992;-62
2022/06/08 01:37:06;;;;;;;;;;;;;;;;;;5036000;28;20275;-62
2022/06/08 01:39:40;;;;;;;;;;;;;;;;;;5035739;28;19975;-62
2022/06/08 01:42:14;;;;;;;;;;;;;;;;;;5035895;28;19929;-62
2022/06/08 01:47:57;;;;;;;;;;;;;;;;;;5033482;28;19920;-62
2022/06/08 01:50:27;;;;;;;;;;;;;;;;;;5035472;28;19921;-62
2022/06/08 01:52:59;;;;;;;;;;;;;;;;;;5035532;28;19961;-63
2022/06/08 01:55:27;;;;;;;;;;;;;;;;;;5035869;28;20010;-63
2022/06/08 01:57:57;;;;;;;;;;;;;;;;;;5035648;28;20008;-63
2022/06/08 02:00:25;;;;;;;;;;;;;;;;;;5016053;28;20334;-62
2022/06/08 02:02:55;;;;;;;;;;;;;;;;;;5015965;28;19921;-63
2022/06/08 02:05:24;;;;;;;;;;;;;;;;;;5016031;28;19983;-63
2022/06/08 02:07:55;;;;;;;;;;;;;;;;;;5015768;28;19921;-62
2022/06/08 02:10:27;;;;;;;;;;;;;;;;;;5015559;28;20307;-63
2022/06/08 02:12:55;;;;;;;;;;;;;;;;;;5015642;28;19968;-62
2022/06/08 02:15:25;;;;;;;;;;;;;;;;;;5016147;28;19921;-62
2022/06/08 02:17:52;;;;;;;;;;;;;;;;;;5015879;28;19972;-63
2022/06/08 02:20:19;;;;;;;;;;;;;;;;;;5015339;28;19925;-63
2022/06/08 02:22:48;;;;;;;;;;;;;;;;;;5015562;28;19925;-63
2022/06/08 02:25:17;;;;;;;;;;;;;;;;;;5015467;28;19922;-62
2022/06/08 02:27:47;;;;;;;;;;;;;;;;;;5015477;28;19922;-62
2022/06/08 02:30:15;;;;;;;;;;;;;;;;;;5025594;28;19986;-62
2022/06/08 02:35:31;;;;;;;;;;;;;;;;;;5034667;28;19927;-62
2022/06/08 02:38:01;;;;;;;;;;;;;;;;;;5034885;28;19964;-62
2022/06/08 02:40:29;;;;;;;;;;;;;;;;;;5033855;28;19940;-62
2022/06/08 02:42:59;;;;;;;;;;;;;;;;;;5034940;28;19921;-62
2022/06/08 02:45:28;;;;;;;;;;;;;;;;;;5034049;28;19967;-62
2022/06/08 02:47:56;;;;;;;;;;;;;;;;;;5034571;28;19921;-62
2022/06/08 02:50:24;;;;;;;;;;;;;;;;;;5034016;28;19928;-62
2022/06/08 02:52:52;;;;;;;;;;;;;;;;;;5034352;28;19936;-62
2022/06/08 02:55:20;;;;;;;;;;;;;;;;;;5034820;28;20293;-62
2022/06/08 02:57:49;;;;;;;;;;;;;;;;;;5034724;28;19921;-62
2022/06/08 03:00:18;;;;;;;;;;;;;;;;;;5035893;28;20439;-62
2022/06/08 03:02:47;;;;;;;;;;;;;;;;;;5034386;28;19979;-61
2022/06/08 03:05:16;;;;;;;;;;;;;;;;;;5034085;28;19921;-62
2022/06/08 03:07:45;;;;;;;;;;;;;;;;;;5034389;28;19921;-62
2022/06/08 03:10:14;;;;;;;;;;;;;;;;;;5033895;28;19975;-62
2022/06/08 03:12:43;;;;;;;;;;;;;;;;;;5034352;28;19974;-62
2022/06/08 03:15:10;;;;;;;;;;;;;;;;;;5034002;28;20362;-63
2022/06/08 03:17:38;;;;;;;;;;;;;;;;;;5034362;28;19925;-62
2022/06/08 03:20:08;;;;;;;;;;;;;;;;;;5033578;28;19974;-63
2022/06/08 03:22:35;;;;;;;;;;;;;;;;;;5034541;28;19982;-62
2022/06/08 03:25:01;;;;;;;;;;;;;;;;;;5033922;28;19927;-63
2022/06/08 03:27:28;;;;;;;;;;;;;;;;;;5034152;28;20386;-63
2022/06/08 03:29:54;;;;;;;;;;;;;;;;;;5033342;28;19928;-63
2022/06/08 03:32:21;;;;;;;;;;;;;;;;;;5034175;28;19920;-63
2022/06/08 03:34:49;;;;;;;;;;;;;;;;;;5033646;28;20382;-62
2022/06/08 03:37:15;;;;;;;;;;;;;;;;;;5033850;28;19921;-63
2022/06/08 03:39:42;;;;;;;;;;;;;;;;;;5033062;28;19956;-62
2022/06/08 03:42:09;;;;;;;;;;;;;;;;;;5033559;28;20302;-63
2022/06/08 03:44:36;;;;;;;;;;;;;;;;;;5033616;28;20258;-63
2022/06/08 03:47:05;;;;;;;;;;;;;;;;;;5033663;28;20011;-63
2022/06/08 03:49:33;;;;;;;;;;;;;;;;;;5033188;28;19983;-63
2022/06/08 03:52:03;;;;;;;;;;;;;;;;;;5033730;28;20425;-62
2022/06/08 03:54:33;;;;;;;;;;;;;;;;;;5033046;28;19975;-62
2022/06/08 03:57:03;;;;;;;;;;;;;;;;;;5033728;28;19932;-65
2022/06/08 03:59:31;;;;;;;;;;;;;;;;;;5021720;28;19933;-62
2022/06/08 04:01:57;;;;;;;;;;;;;;;;;;5033552;28;19921;-62
2022/06/08 04:04:24;;;;;;;;;;;;;;;;;;5032622;28;20362;-62
2022/06/08 04:06:50;;;;;;;;;;;;;;;;;;5032779;28;20373;-63
2022/06/08 04:09:18;;;;;;;;;;;;;;;;;;5032618;28;19975;-63
2022/06/08 04:11:46;;;;;;;;;;;;;;;;;;5032949;28;19921;-63
2022/06/08 04:14:12;;;;;;;;;;;;;;;;;;5032728;28;19921;-63
2022/06/08 04:16:39;;;;;;;;;;;;;;;;;;5033101;28;19925;-62
2022/06/08 04:19:05;;;;;;;;;;;;;;;;;;5032866;28;19925;-62
2022/06/08 04:21:32;;;;;;;;;;;;;;;;;;5022220;28;19975;-62
2022/06/08 04:24:00;;;;;;;;;;;;;;;;;;5032761;28;20390;-63
2022/06/08 04:26:28;;;;;;;;;;;;;;;;;;5032951;28;19921;-62
2022/06/08 04:28:55;;;;;;;;;;;;;;;;;;5033436;28;20007;-63
2022/06/08 04:31:22;;;;;;;;;;;;;;;;;;5032411;28;19924;-62
2022/06/08 04:33:49;;;;;;;;;;;;;;;;;;5032786;28;19925;-63
2022/06/08 04:36:16;;;;;;;;;;;;;;;;;;5032533;28;20012;-63
2022/06/08 04:38:43;;;;;;;;;;;;;;;;;;5032554;28;20329;-63
2022/06/08 04:41:09;;;;;;;;;;;;;;;;;;5032113;28;20357;-63
2022/06/08 04:43:38;;;;;;;;;;;;;;;;;;5032546;28;20278;-63
2022/06/08 04:46:05;;;;;;;;;;;;;;;;;;5032455;28;20282;-62
2022/06/08 04:48:31;;;;;;;;;;;;;;;;;;5033534;28;19925;-65
2022/06/08 04:50:58;;;;;;;;;;;;;;;;;;5035806;28;19921;-65
2022/06/08 04:53:24;;;;;;;;;;;;;;;;;;5036176;28;19921;-64
2022/06/08 04:55:51;;;;;;;;;;;;;;;;;;5035647;28;19921;-64
2022/06/08 04:58:20;;;;;;;;;;;;;;;;;;5036670;28;19921;-64
2022/06/08 05:00:48;;;;;;;;;;;;;;;;;;5035344;28;19928;-64
2022/06/08 05:03:15;;;;;;;;;;;;;;;;;;5035529;28;19927;-64
2022/06/08 05:05:42;;;;;;;;;;;;;;;;;;5036565;28;19921;-64
2022/06/08 05:08:08;;;;;;;;;;;;;;;;;;5035600;28;19968;-64
2022/06/08 05:10:35;;;;;;;;;;;;;;;;;;5035501;28;19944;-64
2022/06/08 05:13:03;;;;;;;;;;;;;;;;;;5035190;28;20420;-64
2022/06/08 05:15:30;;;;;;;;;;;;;;;;;;5035486;28;19979;-64
2022/06/08 05:17:59;;;;;;;;;;;;;;;;;;5035146;28;20226;-65
2022/06/08 05:20:26;;;;;;;;;;;;;;;;;;5034906;28;19921;-63
2022/06/08 05:22:52;;;;;;;;;;;;;;;;;;5036013;28;20007;-65
2022/06/08 05:25:20;;;;;;;;;;;;;;;;;;5034809;28;19943;-65
2022/06/08 05:27:47;;;;;;;;;;;;;;;;;;5035333;28;19921;-64
2022/06/08 05:30:14;;;;;;;;;;;;;;;;;;5034690;28;19921;-65
2022/06/08 05:32:41;;;;;;;;;;;;;;;;;;5034846;28;19929;-64
2022/06/08 05:35:09;;;;;;;;;;;;;;;;;;5035132;28;20308;-65
2022/06/08 05:37:35;;;;;;;;;;;;;;;;;;5034953;28;19924;-65
2022/06/08 05:40:03;;;;;;;;;;;;;;;;;;5034949;28;19928;-65
2022/06/08 05:42:30;;;;;;;;;;;;;;;;;;5032893;28;19928;-65
2022/06/08 05:44:57;;;;;;;;;;;;;;;;;;5034998;28;19928;-65
2022/06/08 05:47:24;;;;;;;;;;;;;;;;;;5034344;28;20349;-65
2022/06/08 05:49:50;;;;;;;;;;;;;;;;;;5015104;28;20445;-65
2022/06/08 05:52:19;;;;;;;;;;;;;;;;;;5015233;28;19921;-65
2022/06/08 05:54:45;;;;;;;;;;;;;;;;;;5015823;28;19999;-64
2022/06/08 05:57:12;;;;;;;;;;;;;;;;;;5015359;28;20283;-65
2022/06/08 05:59:39;;;;;;;;;;;;;;;;;;5029468;28;19922;-65
2022/06/08 06:02:05;;;;;;;;;;;;;;;;;;5034654;28;19975;-64
2022/06/08 06:04:32;;;;;;;;;;;;;;;;;;5034627;28;19953;-65
2022/06/08 06:06:59;;;;;;;;;;;;;;;;;;5034981;28;19925;-65
2022/06/08 06:09:27;;;;;;;;;;;;;;;;;;5034737;28;19947;-64
2022/06/08 06:11:53;;;;;;;;;;;;;;;;;;5034572;28;19921;-64
2022/06/08 06:14:20;;;;;;;;;;;;;;;;;;5034317;28;19975;-65
2022/06/08 06:16:47;;;;;;;;;;;;;;;;;;5035209;28;19921;-65
2022/06/08 06:19:13;;;;;;;;;;;;;;;;;;5034591;28;19927;-64
2022/06/08 06:21:40;;;;;;;;;;;;;;;;;;5037847;28;19921;-64
2022/06/08 06:24:07;;;;;;;;;;;;;;;;;;5038476;28;19921;-64
2022/06/08 06:26:35;;;;;;;;;;;;;;;;;;5038673;28;19936;-63
2022/06/08 06:29:02;;;;;;;;;;;;;;;;;;5038325;28;19921;-64
2022/06/08 06:31:30;;;;;;;;;;;;;;;;;;5037656;28;19921;-64
2022/06/08 06:33:57;;;;;;;;;;;;;;;;;;5037443;28;19983;-63
2022/06/08 06:36:24;;;;;;;;;;;;;;;;;;5037764;28;19927;-63
2022/06/08 06:38:50;;;;;;;;;;;;;;;;;;5037622;28;19924;-63
2022/06/08 06:41:17;;;;;;;;;;;;;;;;;;5037831;28;19921;-64
2022/06/08 06:43:46;;;;;;;;;;;;;;;;;;5037399;28;19975;-67
2022/06/08 06:46:13;;;;;;;;;;;;;;;;;;5037855;28;19925;-64
2022/06/08 06:48:40;;;;;;;;;;;;;;;;;;5037849;28;19975;-63
2022/06/08 06:51:07;;;;;;;;;;;;;;;;;;5037824;28;19925;-65
2022/06/08 06:53:34;;;;;;;;;;;;;;;;;;5037254;28;19921;-64
2022/06/08 06:56:01;;;;;;;;;;;;;;;;;;5036977;28;20000;-65
2022/06/08 06:58:27;;;;;;;;;;;;;;;;;;5031904;28;19925;-69
2022/06/08 07:00:55;;;;;;;;;;;;;;;;;;5027740;28;19943;-64
2022/06/08 07:03:22;;;;;;;;;;;;;;;;;;5034165;28;19994;-64
2022/06/08 07:05:49;;;;;;;;;;;;;;;;;;5032864;28;19932;-64
2022/06/08 07:08:16;;;;;;;;;;;;;;;;;;5033585;28;20484;-64
2022/06/08 07:10:43;;;;;;;;;;;;;;;;;;5033786;28;19921;-63
2022/06/08 07:13:10;;;;;;;;;;;;;;;;;;5034340;28;19944;-62
2022/06/08 07:15:37;;;;;;;;;;;;;;;;;;5032835;28;19925;-59
2022/06/08 07:18:05;;;;;;;;;;;;;;;;;;5035058;28;19925;-68
2022/06/08 07:20:32;;;;;;;;;;;;;;;;;;5033802;28;19929;-64
2022/06/08 07:22:58;;;;;;;;;;;;;;;;;;5034010;28;19943;-68
2022/06/08 07:25:26;;;;;;;;;;;;;;;;;;5033945;28;19921;-59
2022/06/08 07:27:53;;;;;;;;;;;;;;;;;;5032639;28;19921;-62
2022/06/08 07:30:20;;;;;;;;;;;;;;;;;;5032361;28;19925;-62
2022/06/08 07:32:47;;;;;;;;;;;;;;;;;;5033437;28;19927;-64
2022/06/08 07:35:14;;;;;;;;;;;;;;;;;;5033701;28;19940;-64
2022/06/08 07:37:41;;;;;;;;;;;;;;;;;;5033670;28;19944;-64
2022/06/08 07:40:08;;;;;;;;;;;;;;;;;;5033281;28;19921;-64
2022/06/08 07:42:37;;;;;;;;;;;;;;;;;;5033060;28;19925;-63
2022/06/08 07:45:04;;;;;;;;;;;;;;;;;;5033390;28;20366;-63
2022/06/08 07:47:30;;;;;;;;;;;;;;;;;;5032798;28;19932;-64
2022/06/08 07:49:56;;;;;;;;;;;;;;;;;;5034190;28;19975;-62
2022/06/08 07:52:24;;;;;;;;;;;;;;;;;;5032837;28;20325;-62
2022/06/08 07:54:51;;;;;;;;;;;;;;;;;;5032010;28;19936;-60
2022/06/08 07:57:18;;;;;;;;;;;;;;;;;;5031582;28;19986;-62
2022/06/08 07:59:45;;;;;;;;;;;;;;;;;;5030399;28;19921;-62
2022/06/08 08:02:12;;;;;;;;;;;;;;;;;;5027035;28;19983;-61
2022/06/08 08:04:40;;;;;;;;;;;;;;;;;;5026320;28;19997;-62
2022/06/08 08:07:07;;;;;;;;;;;;;;;;;;5031388;28;19921;-64
2022/06/08 08:09:37;;;;;;;;;;;;;;;;;;5031062;28;20294;-61
2022/06/08 08:12:03;;;;;;;;;;;;;;;;;;5031174;28;19967;-62
2022/06/08 08:14:33;;;;;;;;;;;;;;;;;;5030367;28;19921;-62
2022/06/08 08:17:00;;;;;;;;;;;;;;;;;;5030383;28;19921;-62
2022/06/08 08:19:26;;;;;;;;;;;;;;;;;;5030914;28;20333;-61
2022/06/08 08:21:53;;;;;;;;;;;;;;;;;;5030752;28;19936;-64
2022/06/08 08:24:20;;;;;;;;;;;;;;;;;;5030635;28;19925;-62
2022/06/08 08:26:49;;;;;;;;;;;;;;;;;;5030935;28;19923;-60
2022/06/08 08:29:17;;;;;;;;;;;;;;;;;;5031459;28;20007;-62
2022/06/08 08:31:43;;;;;;;;;;;;;;;;;;5031077;28;19991;-62
2022/06/08 08:34:10;;;;;;;;;;;;;;;;;;5030975;28;19975;-63
2022/06/08 08:36:37;;;;;;;;;;;;;;;;;;5030865;28;19956;-62
2022/06/08 08:39:04;;;;;;;;;;;;;;;;;;5030769;28;19929;-63
2022/06/08 08:44:25;;;;;;;;;;;;;;;;;;5030349;28;20266;-61
2022/06/08 08:46:56;;;;;;;;;;;;;;;;;;5030944;28;20333;-62
2022/06/08 08:49:23;;;;;;;;;;;;;;;;;;5030537;28;20318;-60
2022/06/08 08:51:52;;;;;;;;;;;;;;;;;;5030629;28;20011;-61
2022/06/08 08:54:26;;;;;;;;;;;;;;;;;;5030452;28;19921;-62
2022/06/08 08:56:55;;;;;;;;;;;;;;;;;;5030822;28;19932;-62
2022/06/08 08:59:25;;;;;;;;;;;;;;;;;;5018442;28;20008;-61
2022/06/08 09:01:53;;;;;;;;;;;;;;;;;;5009870;28;19928;-62
2022/06/08 09:04:26;;;;;;;;;;;;;;;;;;5011163;28;19922;-62
2022/06/08 09:06:53;;;;;;;;;;;;;;;;;;5022233;28;19995;-61
2022/06/08 09:09:21;;;;;;;;;;;;;;;;;;5030384;28;20039;-62
2022/06/08 09:11:48;;;;;;;;;;;;;;;;;;5030947;28;19983;-62
2022/06/08 09:14:16;;;;;;;;;;;;;;;;;;5030894;28;19921;-62
2022/06/08 09:16:45;;;;;;;;;;;;;;;;;;5030767;28;19929;-62
2022/06/08 09:19:29;;;;;;;;;;;;;;;;;;5031001;28;19921;-61
2022/06/08 09:21:59;;;;;;;;;;;;;;;;;;5030694;28;20037;-62
2022/06/08 09:24:42;;;;;;;;;;;;;;;;;;5029038;28;20008;-62
2022/06/08 09:27:13;;;;;;;;;;;;;;;;;;5028763;28;20348;-62
2022/06/08 09:29:48;;;;;;;;;;;;;;;;;;5029510;28;19979;-62
2022/06/08 09:32:25;;;;;;;;;;;;;;;;;;5030057;28;20275;-62
2022/06/08 09:34:54;;;;;;;;;;;;;;;;;;5030379;28;20018;-62
2022/06/08 09:37:24;;;;;;;;;;;;;;;;;;5029839;28;19925;-62
2022/06/08 09:39:50;;;;;;;;;;;;;;;;;;5030439;28;19921;-62
2022/06/08 09:42:32;;;;;;;;;;;;;;;;;;5030277;28;19983;-62
2022/06/08 09:45:03;;;;;;;;;;;;;;;;;;5030701;28;20334;-63
2022/06/08 09:53:12;;;;;;;;;;;;;;;;;;5030623;28;20028;-62
2022/06/08 09:55:45;;;;;;;;;;;;;;;;;;5034240;28;19925;-63
2022/06/08 09:58:17;;;;;;;;;;;;;;;;;;5031735;28;20386;-62
2022/06/08 10:00:47;;;;;;;;;;;;;;;;;;5014359;28;19968;-63
2022/06/08 10:03:34;;;;;;;;;;;;;;;;;;5014522;28;19979;-63
2022/06/08 10:06:06;;;;;;;;;;;;;;;;;;5024021;28;19921;-61
2022/06/08 10:08:38;;;;;;;;;;;;;;;;;;5033734;28;20010;-63
2022/06/08 10:11:34;;;;;;;;;;;;;;;;;;5034373;28;20028;-62
2022/06/08 10:13:59;;;;;;;;;;;;;;;;;;5033750;28;20008;-63
2022/06/08 10:16:27;;;;;;;;;;;;;;;;;;5033606;28;20079;-62
2022/06/08 10:18:57;;;;;;;;;;;;;;;;;;5033166;28;19971;-63
2022/06/08 10:21:25;;;;;;;;;;;;;;;;;;5033547;28;19925;-63
2022/06/08 10:23:56;;;;;;;;;;;;;;;;;;5034116;28;19968;-63
2022/06/08 10:26:26;;;;;;;;;;;;;;;;;;5029008;28;19968;-62
2022/06/08 10:28:56;;;;;;;;;;;;;;;;;;5030381;28;19967;-62
2022/06/08 10:31:25;;;;;;;;;;;;;;;;;;5029291;28;19967;-62
2022/06/08 10:33:56;;;;;;;;;;;;;;;;;;5030039;28;20244;-63
2022/06/08 10:36:24;;;;;;;;;;;;;;;;;;5033151;28;19928;-62
2022/06/08 10:38:50;;;;;;;;;;;;;;;;;;5033349;28;19967;-62
2022/06/08 10:44:25;;;;;;;;;;;;;;;;;;5033191;28;19944;-63
2022/06/08 10:46:51;;;;;;;;;;;;;;;;;;5032946;28;19921;-63
2022/06/08 10:49:19;;;;;;;;;;;;;;;;;;5033078;28;20337;-62
2022/06/08 10:52:07;;;;;;;;;;;;;;;;;;5032253;28;19983;-63
2022/06/08 10:54:58;;;;;;;;;;;;;;;;;;5032967;28;19925;-63
2022/06/08 10:57:32;;;;;;;;;;;;;;;;;;5032016;28;19921;-68
2022/06/08 11:00:14;;;;;;;;;;;;;;;;;;5032947;28;19929;-63
2022/06/08 11:02:43;;;;;;;;;;;;;;;;;;5032805;28;19931;-64
2022/06/08 11:05:17;;;;;;;;;;;;;;;;;;5032483;28;19928;-58
2022/06/08 11:08:05;;;;;;;;;;;;;;;;;;5033069;28;20398;-61
2022/06/08 11:10:48;;;;;;;;;;;;;;;;;;5027702;28;19921;-61
2022/06/08 11:13:24;;;;;;;;;;;;;;;;;;5032490;28;19921;-61
2022/06/08 11:15:55;;;;;;;;;;;;;;;;;;5032855;28;20008;-61
2022/06/08 11:18:24;;;;;;;;;;;;;;;;;;5032885;28;19925;-60
2022/06/08 11:20:57;;;;;;;;;;;;;;;;;;5032389;28;19928;-60
2022/06/08 11:23:27;;;;;;;;;;;;;;;;;;5032615;28;19925;-62
2022/06/08 11:26:00;;;;;;;;;;;;;;;;;;5031431;28;19925;-62
2022/06/08 11:28:29;;;;;;;;;;;;;;;;;;5027477;28;19921;-62
2022/06/08 11:30:58;;;;;;;;;;;;;;;;;;5031836;28;19920;-62
2022/06/08 11:33:44;;;;;;;;;;;;;;;;;;5032129;28;19944;-62
2022/06/08 11:36:17;;;;;;;;;;;;;;;;;;5031847;28;19929;-62
2022/06/08 11:38:57;;;;;;;;;;;;;;;;;;5032605;28;19967;-62
2022/06/08 11:41:32;;;;;;;;;;;;;;;;;;5031924;28;19975;-63
2022/06/08 11:44:04;;;;;;;;;;;;;;;;;;5031981;28;19921;-63
2022/06/08 11:46:38;;;;;;;;;;;;;;;;;;5031318;28;19925;-66
2022/06/08 11:49:07;;;;;;;;;;;;;;;;;;5030797;28;19968;-62
2022/06/08 11:51:35;;;;;;;;;;;;;;;;;;5031893;28;19921;-62
2022/06/08 11:54:16;;;;;;;;;;;;;;;;;;5041860;22;20023;-63
2022/06/08 11:56:50;;;;;;;;;;;;;;;;;;5027299;28;19996;-63
2022/06/08 11:59:19;;;;;;;;;;;;;;;;;;5023457;28;20010;-63
2022/06/08 12:01:50;;;;;;;;;;;;;;;;;;5030737;28;19982;-62
2022/06/08 12:04:21;;;;;;;;;;;;;;;;;;5021236;28;19967;-63
2022/06/08 12:06:49;;;;;;;;;;;;;;;;;;5027782;28;19929;-64
2022/06/08 12:09:18;;;;;;;;;;;;;;;;;;5025847;28;20651;-64
2022/06/08 12:11:46;;;;;;;;;;;;;;;;;;5028030;28;19921;-63
2022/06/08 12:14:16;;;;;;;;;;;;;;;;;;5031126;28;19921;-65
2022/06/08 12:16:53;;;;;;;;;;;;;;;;;;5031422;28;20433;-62
2022/06/08 12:19:20;;;;;;;;;;;;;;;;;;5030668;28;19920;-63
2022/06/08 12:21:48;;;;;;;;;;;;;;;;;;5030611;28;19928;-63
2022/06/08 12:24:24;;;;;;;;;;;;;;;;;;5030815;28;19921;-63
2022/06/08 12:27:08;;;;;;;;;;;;;;;;;;5026249;28;20025;-65
2022/06/08 12:29:41;;;;;;;;;;;;;;;;;;5016202;28;20456;-64
2022/06/08 12:32:33;;;;;;;;;;;;;;;;;;5030908;28;19960;-64
2022/06/08 12:35:23;;;;;;;;;;;;;;;;;;5015322;28;19975;-64
2022/06/08 12:37:50;;;;;;;;;;;;;;;;;;5031123;28;19975;-63
2022/06/08 12:40:38;;;;;;;;;;;;;;;;;;5030670;28;19925;-63
2022/06/08 12:43:16;;;;;;;;;;;;;;;;;;5031076;28;19921;-64
2022/06/08 12:45:44;;;;;;;;;;;;;;;;;;5031007;28;20000;-64
2022/06/08 12:48:26;;;;;;;;;;;;;;;;;;5030941;28;19999;-64
2022/06/08 12:50:55;;;;;;;;;;;;;;;;;;5030589;28;20012;-65
2022/06/08 12:53:23;;;;;;;;;;;;;;;;;;5030793;28;19925;-65
2022/06/08 12:55:49;;;;;;;;;;;;;;;;;;5030743;28;19925;-64
2022/06/08 12:58:16;;;;;;;;;;;;;;;;;;5030883;28;19921;-63
2022/06/08 13:00:47;;;;;;;;;;;;;;;;;;5030692;28;20344;-64
2022/06/08 13:03:17;;;;;;;;;;;;;;;;;;5030709;28;20189;-64
2022/06/08 13:05:44;;;;;;;;;;;;;;;;;;5030741;28;19925;-64
2022/06/08 13:08:14;;;;;;;;;;;;;;;;;;5029703;28;20030;-65
2022/06/08 13:10:41;;;;;;;;;;;;;;;;;;5025552;28;19925;-64
2022/06/08 13:13:15;;;;;;;;;;;;;;;;;;5030492;28;19943;-64
2022/06/08 13:15:44;;;;;;;;;;;;;;;;;;5030865;28;19928;-65
2022/06/08 13:18:12;;;;;;;;;;;;;;;;;;5029838;28;19925;-64
2022/06/08 13:20:39;;;;;;;;;;;;;;;;;;5030236;28;19929;-64
2022/06/08 13:23:06;;;;;;;;;;;;;;;;;;5029653;28;20356;-64
2022/06/08 13:25:36;;;;;;;;;;;;;;;;;;5023760;28;19922;-64
2022/06/08 13:28:08;;;;;;;;;;;;;;;;;;5028514;28;19928;-64
2022/06/08 13:30:37;;;;;;;;;;;;;;;;;;5033961;28;19964;-65
2022/06/08 13:33:03;;;;;;;;;;;;;;;;;;5033785;28;19921;-65
2022/06/08 13:35:31;;;;;;;;;;;;;;;;;;5033547;28;19928;-64
2022/06/08 13:37:58;;;;;;;;;;;;;;;;;;5034381;28;19924;-64
2022/06/08 13:40:25;;;;;;;;;;;;;;;;;;5034158;28;19921;-64
2022/06/08 13:42:54;;;;;;;;;;;;;;;;;;5032546;28;19928;-65
2022/06/08 13:45:23;;;;;;;;;;;;;;;;;;5033864;28;19921;-65
2022/06/08 13:47:53;;;;;;;;;;;;;;;;;;5034363;28;19925;-64
2022/06/08 13:50:27;;;;;;;;;;;;;;;;;;5033869;28;20405;-64
2022/06/08 13:52:54;;;;;;;;;;;;;;;;;;5034507;28;19927;-65
2022/06/08 13:55:23;;;;;;;;;;;;;;;;;;5034265;28;19921;-65
2022/06/08 13:57:50;;;;;;;;;;;;;;;;;;5034279;28;19928;-64
2022/06/08 14:00:19;;;;;;;;;;;;;;;;;;5033968;28;20524;-64
2022/06/08 14:02:47;;;;;;;;;;;;;;;;;;5034407;28;19928;-64
2022/06/08 14:05:15;;;;;;;;;;;;;;;;;;5034493;28;19921;-65
2022/06/08 14:13:13;;;;;;;;;;;;;;;;;;5030777;28;19939;-64
2022/06/08 14:15:42;;;;;;;;;;;;;;;;;;5033445;28;19928;-64
2022/06/08 14:18:12;;;;;;;;;;;;;;;;;;5033600;28;19925;-63
2022/06/08 14:20:40;;;;;;;;;;;;;;;;;;5033338;28;20009;-64
2022/06/08 14:23:08;;;;;;;;;;;;;;;;;;5033599;28;19929;-64
2022/06/08 14:25:37;;;;;;;;;;;;;;;;;;5029600;28;19921;-63
2022/06/08 14:28:03;;;;;;;;;;;;;;;;;;5031534;28;19925;-64
2022/06/08 14:30:30;;;;;;;;;;;;;;;;;;5036112;28;20341;-64
2022/06/08 14:32:59;;;;;;;;;;;;;;;;;;5032560;28;19921;-65
2022/06/08 14:35:29;;;;;;;;;;;;;;;;;;5033443;28;19975;-65
2022/06/08 14:37:56;;;;;;;;;;;;;;;;;;5033540;28;19921;-65
2022/06/08 14:40:24;;;;;;;;;;;;;;;;;;5032047;28;19921;-63
2022/06/08 14:42:51;;;;;;;;;;;;;;;;;;5033371;28;19921;-64
2022/06/08 14:45:18;;;;;;;;;;;;;;;;;;5033246;28;19925;-64
2022/06/08 14:47:45;;;;;;;;;;;;;;;;;;5032973;28;19947;-64
2022/06/08 14:50:15;;;;;;;;;;;;;;;;;;5032703;28;19928;-64
2022/06/08 14:52:43;;;;;;;;;;;;;;;;;;5039348;28;19924;-64
2022/06/08 14:56:23;;;;;;;;;;;;;;;;;;5045731;28;19925;-64
2022/06/08 14:58:00;;;;;;;;;;;;;;;;;;5031923;28;20007;-64
2022/06/08 15:00:27;;;;;;;;;;;;;;;;;;5032250;28;19925;-64
2022/06/08 15:02:54;;;;;;;;;;;;;;;;;;5032708;28;19921;-65
2022/06/08 15:05:22;;;;;;;;;;;;;;;;;;5032586;28;19967;-65
2022/06/08 15:07:50;;;;;;;;;;;;;;;;;;5032945;28;19921;-63
2022/06/08 15:10:16;;;;;;;;;;;;;;;;;;5030669;28;19921;-64
2022/06/08 15:12:44;;;;;;;;;;;;;;;;;;5032474;28;19921;-65
2022/06/08 15:15:13;;;;;;;;;;;;;;;;;;5032550;28;19925;-64
2022/06/08 15:17:40;;;;;;;;;;;;;;;;;;5032874;28;20418;-66
2022/06/08 15:20:09;;;;;;;;;;;;;;;;;;5032437;28;20443;-64
2022/06/08 15:22:37;;;;;;;;;;;;;;;;;;5032694;28;19925;-64
2022/06/08 15:25:07;;;;;;;;;;;;;;;;;;5029324;28;19928;-65
2022/06/08 15:27:37;;;;;;;;;;;;;;;;;;5031614;28;20202;-64
2022/06/08 15:30:04;;;;;;;;;;;;;;;;;;5031215;28;19972;-63
2022/06/08 15:32:31;;;;;;;;;;;;;;;;;;5026670;28;19921;-64
2022/06/08 15:34:58;;;;;;;;;;;;;;;;;;5031424;28;19929;-64
2022/06/08 15:37:27;;;;;;;;;;;;;;;;;;5031912;28;19921;-64
2022/06/08 15:39:55;;;;;;;;;;;;;;;;;;5032227;28;19932;-64
2022/06/08 15:42:22;;;;;;;;;;;;;;;;;;5032158;28;19921;-64
2022/06/08 15:44:49;;;;;;;;;;;;;;;;;;5032409;28;19921;-64
2022/06/08 15:47:17;;;;;;;;;;;;;;;;;;5032116;28;19921;-64
2022/06/08 15:49:46;;;;;;;;;;;;;;;;;;5031640;28;19921;-64
2022/06/08 15:52:16;;;;;;;;;;;;;;;;;;5031404;28;20297;-64
2022/06/08 15:54:46;;;;;;;;;;;;;;;;;;5031440;28;19927;-64
2022/06/08 15:57:14;;;;;;;;;;;;;;;;;;5031997;28;19921;-64
2022/06/08 15:59:43;;;;;;;;;;;;;;;;;;5031772;28;20384;-64
2022/06/08 16:02:10;;;;;;;;;;;;;;;;;;5031765;28;19928;-64
2022/06/08 16:04:37;;;;;;;;;;;;;;;;;;5031638;28;20390;-65
2022/06/08 16:07:05;;;;;;;;;;;;;;;;;;5049447;28;19924;-65
2022/06/08 16:09:31;;;;;;;;;;;;;;;;;;5039136;28;20344;-66
2022/06/08 16:11:58;;;;;;;;;;;;;;;;;;5031719;28;20404;-64
2022/06/08 16:14:26;;;;;;;;;;;;;;;;;;5031555;28;19921;-64
2022/06/08 16:16:54;;;;;;;;;;;;;;;;;;5031750;28;19921;-64
2022/06/08 16:19:21;;;;;;;;;;;;;;;;;;5031270;28;20043;-64
2022/06/08 16:21:47;;;;;;;;;;;;;;;;;;5035526;28;20370;-64
2022/06/08 16:24:14;;;;;;;;;;;;;;;;;;5031982;28;20317;-64
2022/06/08 16:26:41;;;;;;;;;;;;;;;;;;5031692;28;19948;-65
2022/06/08 16:29:07;;;;;;;;;;;;;;;;;;5032218;28;20008;-65
2022/06/08 16:31:35;;;;;;;;;;;;;;;;;;5031798;28;19920;-63
2022/06/08 16:34:02;;;;;;;;;;;;;;;;;;5032110;28;19928;-62
2022/06/08 16:36:29;;;;;;;;;;;;;;;;;;5031680;28;19927;-64
2022/06/08 16:38:56;;;;;;;;;;;;;;;;;;5043504;28;19920;-63
2022/06/08 16:41:22;;;;;;;;;;;;;;;;;;5031844;28;19967;-64
2022/06/08 16:43:49;;;;;;;;;;;;;;;;;;5031955;28;19921;-64
2022/06/08 16:46:16;;;;;;;;;;;;;;;;;;5031118;28;20303;-64
2022/06/08 16:48:44;;;;;;;;;;;;;;;;;;5030959;28;20012;-64
2022/06/08 16:51:11;;;;;;;;;;;;;;;;;;5031293;28;19925;-64
2022/06/08 16:53:38;;;;;;;;;;;;;;;;;;5031787;28;19927;-63
2022/06/08 16:56:05;;;;;;;;;;;;;;;;;;5030534;28;19967;-67
2022/06/08 17:01:16;;;;;;;;;;;;;;;;;;5031338;28;19935;-64
2022/06/08 17:03:44;;;;;;;;;;;;;;;;;;5030796;28;19928;-65
2022/06/08 17:06:11;;;;;;;;;;;;;;;;;;5030157;28;19925;-64
2022/06/08 17:08:37;;;;;;;;;;;;;;;;;;5039847;28;19924;-63
2022/06/08 17:13:48;;;;;;;;;;;;;;;;;;5051081;28;20010;-63
2022/06/08 17:16:15;;;;;;;;;;;;;;;;;;5050944;28;20385;-64
2022/06/08 17:18:42;;;;;;;;;;;;;;;;;;5051044;28;20660;-65
2022/06/08 17:21:10;;;;;;;;;;;;;;;;;;5050741;28;19921;-63
2022/06/08 17:23:36;;;;;;;;;;;;;;;;;;5050633;28;19921;-64
2022/06/08 17:26:03;;;;;;;;;;;;;;;;;;5050739;28;19925;-63